Time;durP1;ratioP1;P1;durP2;ratioP2;P2;SDS_P1;SDS_P2;PMS_P1;PMS_P2;Temp;Humidity;BMP_temperature;BMP_pressure;BME280_temperature;BME280_humidity;BME280_pressure;Samples;Min_cycle;Max_cycle;Signal;HPM_P1;HPM_P2
2023/05/27 00:02:04;;;;;;;8.18;4.95;;;;;;;;;;6246077;23;20000;-72
2023/05/27 00:04:31;;;;;;;8.00;5.10;;;;;;;;;;6245574;23;20521;-72
2023/05/27 00:06:57;;;;;;;9.55;5.50;;;;;;;;;;6245005;23;20000;-73
2023/05/27 00:09:23;;;;;;;7.65;5.68;;;;;;;;;;6243447;23;20426;-72
2023/05/27 00:11:49;;;;;;;7.97;4.72;;;;;;;;;;6245491;23;20414;-73
2023/05/27 00:14:17;;;;;;;6.43;4.57;;;;;;;;;;6245484;23;20027;-72
2023/05/27 00:16:43;;;;;;;10.88;5.53;;;;;;;;;;6245177;22;20460;-72
2023/05/27 00:19:09;;;;;;;12.98;5.20;;;;;;;;;;6245306;23;20006;-72
2023/05/27 00:21:36;;;;;;;7.00;4.78;;;;;;;;;;6245446;23;20004;-73
2023/05/27 00:24:03;;;;;;;6.55;4.95;;;;;;;;;;6245329;22;20003;-72
2023/05/27 00:26:29;;;;;;;7.20;4.82;;;;;;;;;;6245327;22;20004;-72
2023/05/27 00:28:55;;;;;;;7.90;5.13;;;;;;;;;;6245412;23;20144;-72
2023/05/27 00:31:22;;;;;;;14.38;6.15;;;;;;;;;;6245184;23;20433;-72
2023/05/27 00:33:49;;;;;;;9.82;4.97;;;;;;;;;;6243774;23;20406;-72
2023/05/27 00:36:15;;;;;;;6.75;4.97;;;;;;;;;;6245288;23;20008;-73
2023/05/27 00:38:42;;;;;;;9.68;5.63;;;;;;;;;;6245389;22;20042;-73
2023/05/27 00:41:10;;;;;;;11.52;4.93;;;;;;;;;;6245625;23;20027;-77
2023/05/27 00:43:36;;;;;;;8.65;5.00;;;;;;;;;;6246184;23;20000;-77
2023/05/27 00:46:03;;;;;;;7.35;5.10;;;;;;;;;;6246120;23;20005;-76
2023/05/27 00:48:32;;;;;;;12.38;5.28;;;;;;;;;;6246105;23;20008;-77
2023/05/27 00:54:20;;;;;;;9.18;5.35;;;;;;;;;;6245274;23;20011;-76
2023/05/27 01:12:15;;;;;;;12.32;6.22;;;;;;;;;;6182437;23;20012;-73
2023/05/27 01:15:01;;;;;;;7.97;5.03;;;;;;;;;;6181698;23;20016;-75
2023/05/27 01:17:28;;;;;;;10.40;5.50;;;;;;;;;;6161647;23;20293;-73
2023/05/27 01:19:55;;;;;;;8.75;5.30;;;;;;;;;;6182289;23;20832;-73
2023/05/27 01:22:26;;;;;;;7.60;5.30;;;;;;;;;;6156987;23;20371;-72
2023/05/27 01:24:53;;;;;;;7.78;4.68;;;;;;;;;;6236066;23;20382;-75
2023/05/27 01:27:20;;;;;;;13.23;5.35;;;;;;;;;;6245482;22;20330;-72
2023/05/27 01:29:46;;;;;;;9.30;5.13;;;;;;;;;;6245492;22;20079;-74
2023/05/27 01:32:15;;;;;;;8.50;4.97;;;;;;;;;;6246412;23;20000;-73
2023/05/27 01:34:48;;;;;;;8.07;5.10;;;;;;;;;;6245394;23;20322;-72
2023/05/27 01:37:14;;;;;;;9.68;5.10;;;;;;;;;;6246721;23;20381;-73
2023/05/27 01:39:42;;;;;;;10.07;5.45;;;;;;;;;;6246597;23;20004;-73
2023/05/27 01:42:08;;;;;;;10.60;5.28;;;;;;;;;;6246817;23;20011;-73
2023/05/27 01:44:35;;;;;;;8.57;4.95;;;;;;;;;;6246884;23;20323;-73
2023/05/27 01:47:02;;;;;;;7.60;5.22;;;;;;;;;;6246441;22;20016;-72
2023/05/27 01:49:28;;;;;;;6.32;5.00;;;;;;;;;;6246714;23;19996;-72
2023/05/27 01:51:55;;;;;;;11.43;5.20;;;;;;;;;;6246441;23;20503;-73
2023/05/27 01:54:21;;;;;;;8.05;5.20;;;;;;;;;;6246769;22;20423;-73
2023/05/27 01:56:47;;;;;;;13.43;4.88;;;;;;;;;;6246812;23;20595;-72
2023/05/27 01:59:13;;;;;;;9.13;5.30;;;;;;;;;;6247111;23;20061;-72
2023/05/27 02:01:40;;;;;;;8.25;5.22;;;;;;;;;;6246508;23;20449;-72
2023/05/27 02:04:07;;;;;;;6.28;4.65;;;;;;;;;;6246814;22;20000;-72
2023/05/27 02:06:33;;;;;;;10.63;5.50;;;;;;;;;;6246527;23;20000;-72
2023/05/27 02:08:59;;;;;;;7.18;4.70;;;;;;;;;;6246588;23;20032;-73
2023/05/27 02:11:25;;;;;;;10.57;5.50;;;;;;;;;;6245175;23;20308;-72
2023/05/27 02:13:52;;;;;;;6.57;5.25;;;;;;;;;;6246646;22;20007;-73
2023/05/27 02:16:20;;;;;;;9.20;5.22;;;;;;;;;;6246308;22;20461;-73
2023/05/27 02:18:48;;;;;;;8.30;5.00;;;;;;;;;;6247695;22;20421;-76
2023/05/27 02:21:15;;;;;;;7.88;5.15;;;;;;;;;;6247548;22;20334;-76
2023/05/27 02:23:41;;;;;;;8.60;5.55;;;;;;;;;;6247225;23;20377;-75
2023/05/27 02:26:07;;;;;;;8.05;5.75;;;;;;;;;;6247350;23;20308;-75
2023/05/27 02:28:37;;;;;;;9.00;5.00;;;;;;;;;;6245623;23;20035;-76
2023/05/27 02:31:03;;;;;;;6.82;4.85;;;;;;;;;;6246209;23;20004;-75
2023/05/27 02:34:14;;;;;;;9.45;5.07;;;;;;;;;;6246635;23;20658;-76
2023/05/27 02:36:46;;;;;;;8.30;5.63;;;;;;;;;;6187117;23;20035;-76
2023/05/27 02:39:13;;;;;;;8.98;5.05;;;;;;;;;;6246528;23;20008;-75
2023/05/27 02:41:51;;;;;;;14.13;6.53;;;;;;;;;;6246620;22;20425;-75
2023/05/27 02:44:56;;;;;;;11.20;5.38;;;;;;;;;;6245878;23;20473;-75
2023/05/27 02:54:13;;;;;;;7.85;5.07;;;;;;;;;;6182952;23;20012;-76
2023/05/27 02:56:42;;;;;;;9.07;5.00;;;;;;;;;;6178128;23;20103;-75
2023/05/27 02:59:08;;;;;;;7.07;4.68;;;;;;;;;;6232303;22;20011;-75
2023/05/27 03:01:35;;;;;;;7.10;4.60;;;;;;;;;;6246303;23;20414;-75
2023/05/27 03:04:01;;;;;;;7.63;4.65;;;;;;;;;;6245976;22;19996;-75
2023/05/27 03:06:27;;;;;;;7.20;5.00;;;;;;;;;;6246277;23;20367;-76
2023/05/27 03:08:53;;;;;;;6.25;4.53;;;;;;;;;;6246138;23;20381;-76
2023/05/27 03:11:21;;;;;;;7.85;4.97;;;;;;;;;;6246147;23;20004;-75
2023/05/27 03:13:47;;;;;;;9.90;4.85;;;;;;;;;;6246312;22;20000;-76
2023/05/27 03:16:13;;;;;;;7.03;4.88;;;;;;;;;;6245693;23;20008;-75
2023/05/27 03:18:40;;;;;;;8.30;5.25;;;;;;;;;;6245974;22;20019;-76
2023/05/27 03:21:06;;;;;;;8.25;5.20;;;;;;;;;;6245975;23;20071;-76
2023/05/27 03:23:32;;;;;;;7.43;5.38;;;;;;;;;;6245893;23;20000;-76
2023/05/27 03:25:58;;;;;;;8.00;5.00;;;;;;;;;;6245915;23;20457;-76
2023/05/27 03:28:24;;;;;;;7.53;5.15;;;;;;;;;;6245742;23;20008;-75
2023/05/27 03:30:55;;;;;;;6.82;5.05;;;;;;;;;;6246116;22;20042;-76
2023/05/27 03:33:22;;;;;;;6.22;4.97;;;;;;;;;;6246249;22;20099;-75
2023/05/27 03:35:48;;;;;;;7.97;5.38;;;;;;;;;;6245988;23;20044;-76
2023/05/27 03:38:14;;;;;;;9.52;5.28;;;;;;;;;;6246114;23;20532;-76
2023/05/27 03:40:40;;;;;;;8.73;5.22;;;;;;;;;;6245617;23;20004;-76
2023/05/27 03:43:06;;;;;;;9.55;5.22;;;;;;;;;;6245740;23;19996;-76
2023/05/27 03:45:32;;;;;;;11.52;4.97;;;;;;;;;;6245479;23;20000;-76
2023/05/27 03:47:58;;;;;;;8.10;5.65;;;;;;;;;;6245382;23;20043;-76
2023/05/27 03:50:24;;;;;;;10.45;6.60;;;;;;;;;;6245722;23;20087;-76
2023/05/27 03:52:51;;;;;;;9.63;6.68;;;;;;;;;;6245482;23;20083;-76
2023/05/27 03:55:17;;;;;;;8.63;5.40;;;;;;;;;;6245386;23;20004;-76
2023/05/27 03:57:43;;;;;;;11.32;5.30;;;;;;;;;;6245723;23;20030;-76
2023/05/27 04:00:13;;;;;;;7.82;4.95;;;;;;;;;;6246345;23;19996;-76
2023/05/27 04:02:40;;;;;;;12.43;5.50;;;;;;;;;;6245993;22;20015;-75
2023/05/27 04:05:06;;;;;;;9.52;5.50;;;;;;;;;;6246196;22;20367;-76
2023/05/27 04:07:32;;;;;;;7.32;5.50;;;;;;;;;;6245748;23;20000;-75
2023/05/27 04:13:11;;;;;;;10.80;5.25;;;;;;;;;;6216308;23;20066;-75
2023/05/27 04:15:46;;;;;;;10.85;5.85;;;;;;;;;;6245598;23;20055;-75
2023/05/27 04:18:22;;;;;;;9.45;5.60;;;;;;;;;;6244776;22;20015;-76
2023/05/27 04:21:32;;;;;;;7.90;5.28;;;;;;;;;;6244087;23;20351;-75
2023/05/27 04:24:07;;;;;;;8.32;5.35;;;;;;;;;;6237608;23;20011;-76
2023/05/27 04:27:02;;;;;;;13.23;5.70;;;;;;;;;;6245311;23;20004;-75
2023/05/27 04:29:32;;;;;;;8.43;5.45;;;;;;;;;;6244293;23;20118;-76
2023/05/27 04:32:56;;;;;;;10.98;5.85;;;;;;;;;;6244183;23;20027;-76
2023/05/27 04:34:58;;;;;;;10.23;5.45;;;;;;;;;;6234242;23;20008;-76
2023/05/27 04:37:27;;;;;;;8.60;5.53;;;;;;;;;;6245341;23;20008;-76
2023/05/27 04:39:56;;;;;;;10.63;5.85;;;;;;;;;;6245455;22;20005;-76
2023/05/27 04:42:24;;;;;;;9.85;5.55;;;;;;;;;;6245350;22;20373;-76
2023/05/27 04:44:50;;;;;;;8.00;4.93;;;;;;;;;;6245575;22;20007;-75
2023/05/27 04:47:16;;;;;;;8.02;5.43;;;;;;;;;;6245556;22;20040;-76
2023/05/27 04:49:46;;;;;;;9.52;5.65;;;;;;;;;;6245387;23;20001;-76
2023/05/27 04:52:12;;;;;;;8.70;5.18;;;;;;;;;;6245538;22;20366;-75
2023/05/27 04:54:38;;;;;;;8.35;5.90;;;;;;;;;;6245122;23;20300;-76
2023/05/27 04:57:04;;;;;;;8.82;5.75;;;;;;;;;;6244567;23;20015;-76
2023/05/27 04:59:46;;;;;;;10.77;5.90;;;;;;;;;;6243967;23;20071;-75
2023/05/27 05:02:21;;;;;;;13.23;5.45;;;;;;;;;;6241414;22;20639;-74
2023/05/27 05:04:47;;;;;;;13.98;5.70;;;;;;;;;;6245627;22;20000;-75
2023/05/27 05:07:14;;;;;;;10.77;5.72;;;;;;;;;;6246720;22;20024;-75
2023/05/27 05:09:40;;;;;;;11.98;5.32;;;;;;;;;;6247369;23;20000;-76
2023/05/27 05:12:07;;;;;;;7.32;5.57;;;;;;;;;;6245718;23;20497;-76
2023/05/27 05:14:33;;;;;;;9.07;5.60;;;;;;;;;;6249351;22;20004;-72
2023/05/27 05:16:59;;;;;;;8.85;5.90;;;;;;;;;;6246302;23;20008;-73
2023/05/27 05:19:25;;;;;;;12.23;6.20;;;;;;;;;;6244750;23;20000;-73
2023/05/27 05:21:51;;;;;;;9.82;5.20;;;;;;;;;;6246610;22;20334;-73
2023/05/27 05:24:17;;;;;;;8.82;5.30;;;;;;;;;;6246785;23;20031;-73
2023/05/27 05:26:44;;;;;;;8.98;5.50;;;;;;;;;;6246890;23;20004;-73
2023/05/27 05:29:10;;;;;;;10.15;5.70;;;;;;;;;;6246627;22;20083;-73
2023/05/27 05:31:37;;;;;;;8.98;5.47;;;;;;;;;;6246769;23;20001;-73
2023/05/27 05:34:03;;;;;;;7.85;5.47;;;;;;;;;;6247467;23;20099;-75
2023/05/27 05:36:29;;;;;;;9.27;5.82;;;;;;;;;;6247373;23;20015;-76
2023/05/27 05:38:55;;;;;;;9.43;6.15;;;;;;;;;;6247861;23;20017;-76
2023/05/27 05:41:21;;;;;;;8.88;5.30;;;;;;;;;;6247558;23;20004;-75
2023/05/27 05:43:48;;;;;;;12.07;5.63;;;;;;;;;;6247776;23;20007;-76
2023/05/27 05:46:23;;;;;;;11.98;6.07;;;;;;;;;;6245409;23;20008;-76
2023/05/27 05:49:02;;;;;;;8.52;5.35;;;;;;;;;;6246448;23;20338;-76
2023/05/27 05:54:30;;;;;;;8.55;5.22;;;;;;;;;;6183549;23;20008;-76
2023/05/27 05:57:49;;;;;;;8.63;5.57;;;;;;;;;;6183074;23;20248;-75
2023/05/27 06:03:21;;;;;;;9.95;5.60;;;;;;;;;;6066108;23;20120;-76
2023/05/27 06:05:47;;;;;;;8.70;5.45;;;;;;;;;;6183261;23;20013;-75
2023/05/27 06:08:32;;;;;;;9.55;5.63;;;;;;;;;;6184120;23;20044;-76
2023/05/27 06:10:58;;;;;;;8.02;5.35;;;;;;;;;;6183701;23;20071;-76
2023/05/27 06:13:24;;;;;;;8.45;5.07;;;;;;;;;;6246101;23;20008;-75
2023/05/27 06:15:51;;;;;;;9.90;5.75;;;;;;;;;;6244789;23;20096;-76
2023/05/27 06:18:17;;;;;;;9.90;5.60;;;;;;;;;;6246928;23;20000;-76
2023/05/27 06:20:43;;;;;;;8.23;5.50;;;;;;;;;;6246632;23;20075;-76
2023/05/27 06:23:09;;;;;;;7.47;5.10;;;;;;;;;;6246606;23;20067;-75
2023/05/27 06:25:35;;;;;;;10.43;5.10;;;;;;;;;;6246631;23;20315;-75
2023/05/27 06:28:01;;;;;;;8.77;5.85;;;;;;;;;;6246529;23;20376;-76
2023/05/27 06:30:28;;;;;;;8.00;5.57;;;;;;;;;;6246670;23;20370;-75
2023/05/27 06:32:54;;;;;;;8.43;5.13;;;;;;;;;;6246441;23;20478;-76
2023/05/27 06:35:20;;;;;;;8.60;4.82;;;;;;;;;;6246482;23;20389;-75
2023/05/27 06:37:46;;;;;;;13.50;5.88;;;;;;;;;;6246152;23;20008;-76
2023/05/27 06:40:12;;;;;;;9.18;5.18;;;;;;;;;;6246405;23;20007;-76
2023/05/27 06:42:38;;;;;;;8.82;5.50;;;;;;;;;;6246440;23;20461;-76
2023/05/27 06:45:05;;;;;;;11.18;5.30;;;;;;;;;;6246328;23;20011;-75
2023/05/27 06:47:31;;;;;;;10.30;5.20;;;;;;;;;;6245936;22;20453;-76
2023/05/27 06:49:57;;;;;;;12.02;5.80;;;;;;;;;;6246246;23;20000;-75
2023/05/27 06:52:23;;;;;;;8.05;5.65;;;;;;;;;;6246494;23;20011;-75
2023/05/27 06:54:49;;;;;;;7.78;5.22;;;;;;;;;;6246390;23;20075;-75
2023/05/27 06:57:16;;;;;;;6.75;5.15;;;;;;;;;;6245917;23;20465;-75
2023/05/27 06:59:42;;;;;;;8.00;5.07;;;;;;;;;;6245829;23;20046;-76
2023/05/27 07:02:08;;;;;;;7.80;5.40;;;;;;;;;;6246104;23;20008;-75
2023/05/27 07:04:34;;;;;;;11.73;5.45;;;;;;;;;;6246182;23;20001;-75
2023/05/27 07:07:00;;;;;;;8.43;5.55;;;;;;;;;;6245882;23;20066;-75
2023/05/27 07:09:26;;;;;;;8.52;5.80;;;;;;;;;;6245618;23;19996;-76
2023/05/27 07:11:52;;;;;;;8.73;5.45;;;;;;;;;;6246326;23;20000;-76
2023/05/27 07:14:18;;;;;;;7.25;5.35;;;;;;;;;;6245949;23;20083;-76
2023/05/27 07:16:45;;;;;;;9.00;5.50;;;;;;;;;;6246558;23;20015;-74
2023/05/27 07:19:11;;;;;;;8.40;5.15;;;;;;;;;;6244865;23;20007;-76
2023/05/27 07:21:37;;;;;;;7.45;5.25;;;;;;;;;;6246720;23;20015;-76
2023/05/27 07:24:03;;;;;;;8.85;5.55;;;;;;;;;;6246608;23;20442;-75
2023/05/27 07:26:56;;;;;;;10.80;5.20;;;;;;;;;;6246070;23;20028;-76
2023/05/27 07:29:31;;;;;;;6.78;5.38;;;;;;;;;;6216939;23;20100;-75
2023/05/27 07:42:08;;;;;;;15.15;6.35;;;;;;;;;;6095078;23;20014;-76
2023/05/27 07:47:08;;;;;;;9.00;5.32;;;;;;;;;;6306774;22;20019;-72
2023/05/27 07:49:34;;;;;;;7.43;5.43;;;;;;;;;;6280378;22;20039;-72
2023/05/27 07:52:11;;;;;;;;;;;;;;;;;;;;;
2023/05/27 08:01:02;;;;;;;7.32;5.45;;;;;;;;;;6214929;23;20027;-75
2023/05/27 08:07:00;;;;;;;11.07;5.47;;;;;;;;;;6140313;23;20012;-75
2023/05/27 08:10:02;;;;;;;8.02;5.50;;;;;;;;;;6123492;23;20010;-75
2023/05/27 08:12:28;;;;;;;7.57;5.67;;;;;;;;;;6093959;23;20025;-76
2023/05/27 08:15:22;;;;;;;9.15;5.18;;;;;;;;;;6189252;23;20470;-76
2023/05/27 08:17:51;;;;;;;8.75;5.60;;;;;;;;;;6282055;22;20018;-76
2023/05/27 08:20:17;;;;;;;7.60;5.65;;;;;;;;;;6279771;22;20340;-76
2023/05/27 08:22:45;;;;;;;9.35;5.80;;;;;;;;;;6307507;22;20298;-76
2023/05/27 08:25:12;;;;;;;8.85;5.65;;;;;;;;;;6279888;22;20384;-76
2023/05/27 08:27:45;;;;;;;9.07;5.45;;;;;;;;;;6307085;22;20035;-76
2023/05/27 08:30:12;;;;;;;10.57;5.80;;;;;;;;;;6306820;22;20022;-76
2023/05/27 08:32:38;;;;;;;12.15;5.75;;;;;;;;;;6307009;22;20007;-76
2023/05/27 08:35:05;;;;;;;14.02;5.95;;;;;;;;;;6307217;22;19999;-76
2023/05/27 08:37:31;;;;;;;9.95;5.88;;;;;;;;;;6307214;22;20333;-75
2023/05/27 08:39:57;;;;;;;12.55;6.15;;;;;;;;;;6308957;22;20022;-76
2023/05/27 08:42:24;;;;;;;8.50;5.60;;;;;;;;;;6309511;22;20076;-74
2023/05/27 08:44:50;;;;;;;8.48;5.95;;;;;;;;;;6308835;22;20325;-76
2023/05/27 08:47:17;;;;;;;9.45;5.57;;;;;;;;;;6309158;22;20037;-76
2023/05/27 08:49:43;;;;;;;9.90;5.55;;;;;;;;;;6309580;22;20007;-76
2023/05/27 08:52:14;;;;;;;7.95;5.65;;;;;;;;;;6308997;22;20003;-75
2023/05/27 08:54:41;;;;;;;8.57;6.05;;;;;;;;;;6309569;22;19999;-75
2023/05/27 08:57:09;;;;;;;11.80;5.82;;;;;;;;;;6308895;22;20017;-75
2023/05/27 08:59:36;;;;;;;9.30;5.95;;;;;;;;;;6309172;22;20058;-75
2023/05/27 09:02:03;;;;;;;7.78;5.90;;;;;;;;;;6308935;22;20000;-75
2023/05/27 09:04:29;;;;;;;9.48;5.47;;;;;;;;;;6280716;22;20069;-76
2023/05/27 09:06:55;;;;;;;9.55;5.85;;;;;;;;;;6308597;22;20037;-76
2023/05/27 09:09:21;;;;;;;7.43;5.55;;;;;;;;;;6281313;22;20004;-77
2023/05/27 09:11:47;;;;;;;9.98;5.82;;;;;;;;;;6281498;22;20035;-76
2023/05/27 09:14:20;;;;;;;9.07;5.90;;;;;;;;;;6308600;22;20425;-75
2023/05/27 09:16:46;;;;;;;8.93;5.63;;;;;;;;;;6308621;22;20011;-76
2023/05/27 09:19:16;;;;;;;8.60;5.97;;;;;;;;;;6308173;22;20004;-82
2023/05/27 09:21:42;;;;;;;9.82;6.00;;;;;;;;;;6309334;22;20030;-76
2023/05/27 09:24:10;;;;;;;8.82;6.30;;;;;;;;;;6309330;22;19996;-76
2023/05/27 09:26:48;;;;;;;11.65;6.05;;;;;;;;;;6308838;22;20306;-75
2023/05/27 09:29:39;;;;;;;;;;;;;;;;;;;;;
2023/05/27 09:32:36;;;;;;;9.75;5.55;;;;;;;;;;6308815;22;20377;-74
2023/05/27 09:35:23;;;;;;;10.77;6.70;;;;;;;;;;6184025;23;20016;-76
2023/05/27 09:47:38;;;;;;;11.57;5.80;;;;;;;;;;6123963;23;20028;-77
2023/05/27 09:50:15;;;;;;;8.05;5.50;;;;;;;;;;6123628;23;20010;-77
2023/05/27 09:52:46;;;;;;;13.00;5.90;;;;;;;;;;6124229;23;20085;-78
2023/05/27 09:55:42;;;;;;;11.57;5.55;;;;;;;;;;6124512;23;20014;-76
2023/05/27 09:58:08;;;;;;;11.57;5.57;;;;;;;;;;6111133;23;20407;-77
2023/05/27 10:00:35;;;;;;;10.15;5.72;;;;;;;;;;6124960;23;20010;-76
2023/05/27 10:03:03;;;;;;;7.13;5.72;;;;;;;;;;6125163;23;20333;-76
2023/05/27 10:05:30;;;;;;;12.95;6.40;;;;;;;;;;6210397;23;20008;-77
2023/05/27 10:07:57;;;;;;;8.90;6.13;;;;;;;;;;6244579;23;20312;-77
2023/05/27 10:10:23;;;;;;;8.43;6.15;;;;;;;;;;6246289;22;20329;-77
2023/05/27 10:12:51;;;;;;;9.63;6.38;;;;;;;;;;6246197;23;20019;-77
2023/05/27 10:15:28;;;;;;;13.55;6.30;;;;;;;;;;6245996;22;20004;-77
2023/05/27 10:17:55;;;;;;;11.20;5.75;;;;;;;;;;6246070;22;20393;-77
2023/05/27 10:20:31;;;;;;;14.82;5.57;;;;;;;;;;6246214;23;20077;-77
2023/05/27 10:23:10;;;;;;;10.05;5.60;;;;;;;;;;6246509;23;20015;-76
2023/05/27 10:25:36;;;;;;;7.35;5.75;;;;;;;;;;6246839;22;20008;-76
2023/05/27 10:28:02;;;;;;;6.82;5.75;;;;;;;;;;6245619;23;20000;-77
2023/05/27 10:30:29;;;;;;;7.15;5.40;;;;;;;;;;6246093;23;20042;-77
2023/05/27 10:32:55;;;;;;;8.30;6.30;;;;;;;;;;6246198;23;20498;-76
2023/05/27 10:35:27;;;;;;;10.25;5.65;;;;;;;;;;6246101;22;20449;-76
2023/05/27 10:37:53;;;;;;;8.95;5.78;;;;;;;;;;6247694;22;20012;-75
2023/05/27 10:40:25;;;;;;;8.88;6.18;;;;;;;;;;6245812;23;20263;-75
2023/05/27 10:43:13;;;;;;;8.30;5.80;;;;;;;;;;6244540;23;20015;-76
2023/05/27 10:52:10;;;;;;;6.60;5.60;;;;;;;;;;6213040;23;20023;-76
2023/05/27 10:54:37;;;;;;;9.38;5.90;;;;;;;;;;6216230;22;20007;-76
2023/05/27 10:57:38;;;;;;;8.23;6.38;;;;;;;;;;6306847;22;20056;-77
2023/05/27 11:03:21;;;;;;;8.38;5.40;;;;;;;;;;6066107;23;20013;-74
2023/05/27 11:05:58;;;;;;;9.32;5.88;;;;;;;;;;6181736;23;20005;-74
2023/05/27 11:08:25;;;;;;;7.85;5.82;;;;;;;;;;6183305;23;20121;-74
2023/05/27 11:10:51;;;;;;;8.27;5.50;;;;;;;;;;6242281;22;20000;-75
2023/05/27 11:13:17;;;;;;;9.30;6.07;;;;;;;;;;6308116;22;20398;-75
2023/05/27 11:15:44;;;;;;;6.28;5.55;;;;;;;;;;6310310;22;20366;-77
2023/05/27 11:18:16;;;;;;;7.88;6.28;;;;;;;;;;6311704;22;20326;-76
2023/05/27 11:20:42;;;;;;;8.60;5.70;;;;;;;;;;6282152;22;20364;-76
2023/05/27 11:23:08;;;;;;;11.52;6.43;;;;;;;;;;6309809;22;20010;-75
2023/05/27 11:25:44;;;;;;;6.70;5.38;;;;;;;;;;6308383;22;20332;-75
2023/05/27 11:28:16;;;;;;;6.97;5.40;;;;;;;;;;6309855;22;19999;-77
2023/05/27 11:30:43;;;;;;;6.15;5.40;;;;;;;;;;6309139;22;20027;-77
2023/05/27 11:33:09;;;;;;;7.60;6.10;;;;;;;;;;6307422;22;20511;-76
2023/05/27 11:35:35;;;;;;;10.18;5.88;;;;;;;;;;6307199;22;20134;-76
2023/05/27 11:38:02;;;;;;;6.75;5.57;;;;;;;;;;6307277;22;20378;-76
2023/05/27 11:40:38;;;;;;;8.43;4.85;;;;;;;;;;6307918;22;20474;-75
2023/05/27 11:43:04;;;;;;;8.30;5.65;;;;;;;;;;6308225;22;20444;-76
2023/05/27 11:45:36;;;;;;;7.93;5.70;;;;;;;;;;6307394;22;20019;-76
2023/05/27 11:48:02;;;;;;;10.30;5.05;;;;;;;;;;6307533;22;20029;-76
2023/05/27 11:50:29;;;;;;;7.93;5.50;;;;;;;;;;6307407;22;20413;-76
2023/05/27 11:52:56;;;;;;;8.30;5.47;;;;;;;;;;6279666;22;20416;-75
2023/05/27 11:55:25;;;;;;;19.02;6.10;;;;;;;;;;6307073;22;20328;-76
2023/05/27 11:57:51;;;;;;;8.77;5.28;;;;;;;;;;6279805;22;20473;-75
2023/05/27 12:00:19;;;;;;;12.10;5.30;;;;;;;;;;6280782;22;20053;-76
2023/05/27 12:02:45;;;;;;;13.40;6.00;;;;;;;;;;6307615;22;20002;-77
2023/05/27 12:05:11;;;;;;;12.55;5.30;;;;;;;;;;6307426;22;19999;-77
2023/05/27 12:07:40;;;;;;;11.35;5.32;;;;;;;;;;6307334;22;20054;-76
2023/05/27 12:10:09;;;;;;;9.88;5.22;;;;;;;;;;6306923;22;20003;-78
2023/05/27 12:12:41;;;;;;;11.27;5.18;;;;;;;;;;6307250;22;20066;-77
2023/05/27 12:15:20;;;;;;;11.77;5.25;;;;;;;;;;6307047;22;20006;-77
2023/05/27 12:21:22;;;;;;;10.40;5.50;;;;;;;;;;6182952;23;20394;-77
2023/05/27 12:24:09;;;;;;;8.43;5.50;;;;;;;;;;6182761;23;20002;-77
2023/05/27 12:39:20;;;;;;;8.45;4.75;;;;;;;;;;6035846;23;20016;-76
2023/05/27 12:41:46;;;;;;;7.63;5.07;;;;;;;;;;6035109;23;20104;-75
2023/05/27 12:44:13;;;;;;;7.22;5.05;;;;;;;;;;6199678;22;20341;-76
2023/05/27 12:46:39;;;;;;;8.98;5.43;;;;;;;;;;6306761;22;20071;-76
2023/05/27 12:49:07;;;;;;;10.02;4.90;;;;;;;;;;6306639;22;20376;-76
2023/05/27 12:51:33;;;;;;;7.40;4.93;;;;;;;;;;6306506;22;20007;-75
2023/05/27 12:53:59;;;;;;;9.73;5.30;;;;;;;;;;6278965;22;20443;-75
2023/05/27 12:56:26;;;;;;;12.38;4.93;;;;;;;;;;6306672;22;20338;-76
2023/05/27 12:58:52;;;;;;;7.25;4.50;;;;;;;;;;6306692;22;20044;-75
2023/05/27 13:01:18;;;;;;;11.13;5.32;;;;;;;;;;6306481;22;20330;-77
2023/05/27 13:03:44;;;;;;;6.75;4.78;;;;;;;;;;6306613;22;20376;-75
2023/05/27 13:06:10;;;;;;;8.18;4.95;;;;;;;;;;6279356;22;20468;-75
2023/05/27 13:08:36;;;;;;;11.98;5.07;;;;;;;;;;6306407;22;19995;-74
2023/05/27 13:11:02;;;;;;;6.28;4.60;;;;;;;;;;6306785;22;20006;-74
2023/05/27 13:13:28;;;;;;;17.27;5.80;;;;;;;;;;6306324;22;20071;-75
2023/05/27 13:15:55;;;;;;;6.82;4.63;;;;;;;;;;6306580;22;20004;-74
2023/05/27 13:18:21;;;;;;;7.68;5.28;;;;;;;;;;6306873;22;20326;-74
2023/05/27 13:20:47;;;;;;;9.60;4.47;;;;;;;;;;6279480;22;20003;-75
2023/05/27 13:23:13;;;;;;;10.38;4.85;;;;;;;;;;6306438;22;20033;-74
2023/05/27 13:25:39;;;;;;;6.63;4.93;;;;;;;;;;6307462;22;20082;-75
2023/05/27 13:28:06;;;;;;;8.10;4.70;;;;;;;;;;6308437;22;19995;-75
2023/05/27 13:30:32;;;;;;;5.75;4.47;;;;;;;;;;6308507;22;20002;-75
2023/05/27 13:32:58;;;;;;;9.30;4.97;;;;;;;;;;6280716;22;20011;-74
2023/05/27 13:35:24;;;;;;;6.85;4.50;;;;;;;;;;6280819;22;20310;-75
2023/05/27 13:37:50;;;;;;;11.25;4.63;;;;;;;;;;6308150;22;20007;-75
2023/05/27 13:40:16;;;;;;;9.40;4.30;;;;;;;;;;6308333;22;19999;-75
2023/05/27 13:42:42;;;;;;;9.52;4.88;;;;;;;;;;6309357;22;20428;-76
2023/05/27 13:45:09;;;;;;;7.90;4.55;;;;;;;;;;6309354;22;19995;-76
2023/05/27 13:47:38;;;;;;;8.27;4.40;;;;;;;;;;6308929;22;20336;-75
2023/05/27 13:56:43;;;;;;;8.20;4.07;;;;;;;;;;6308593;22;20177;-76
2023/05/27 13:59:12;;;;;;;8.70;4.63;;;;;;;;;;6183227;23;20037;-76
2023/05/27 14:01:38;;;;;;;7.40;4.15;;;;;;;;;;6307867;22;20007;-76
2023/05/27 14:04:23;;;;;;;6.00;4.75;;;;;;;;;;6307968;22;20041;-77
2023/05/27 14:06:49;;;;;;;8.95;4.85;;;;;;;;;;6307432;22;20295;-75
2023/05/27 14:09:34;;;;;;;8.50;5.05;;;;;;;;;;6307185;22;20022;-76
2023/05/27 14:12:36;;;;;;;6.70;4.25;;;;;;;;;;6307353;22;20023;-76
2023/05/27 14:15:11;;;;;;;6.20;4.30;;;;;;;;;;6300035;22;20003;-76
2023/05/27 14:17:40;;;;;;;9.10;4.35;;;;;;;;;;6308263;22;20014;-77
2023/05/27 14:20:10;;;;;;;7.95;4.15;;;;;;;;;;6307677;22;19999;-75
2023/05/27 14:22:37;;;;;;;8.63;4.60;;;;;;;;;;6307634;22;20430;-76
2023/05/27 14:25:03;;;;;;;16.10;4.57;;;;;;;;;;6279884;22;20090;-76
2023/05/27 14:27:29;;;;;;;5.68;4.22;;;;;;;;;;6307871;22;20355;-76
2023/05/27 14:29:56;;;;;;;7.38;4.88;;;;;;;;;;6307920;22;20009;-76
2023/05/27 14:32:22;;;;;;;8.13;4.57;;;;;;;;;;6307856;22;20087;-76
2023/05/27 14:34:48;;;;;;;8.27;4.57;;;;;;;;;;6308041;22;19999;-75
2023/05/27 14:37:14;;;;;;;5.70;4.55;;;;;;;;;;6306841;22;20564;-76
2023/05/27 14:39:40;;;;;;;6.78;3.92;;;;;;;;;;6307799;22;19999;-76
2023/05/27 14:42:07;;;;;;;7.28;4.88;;;;;;;;;;6280506;22;20298;-76
2023/05/27 14:44:38;;;;;;;8.85;4.60;;;;;;;;;;6280311;22;20502;-76
2023/05/27 14:47:05;;;;;;;11.18;5.00;;;;;;;;;;6307528;22;20022;-76
2023/05/27 14:49:31;;;;;;;9.55;4.32;;;;;;;;;;6307720;22;20075;-76
2023/05/27 14:51:57;;;;;;;5.50;3.97;;;;;;;;;;6307826;22;20417;-76
2023/05/27 14:54:24;;;;;;;11.63;5.10;;;;;;;;;;6307861;22;20007;-76
2023/05/27 14:56:50;;;;;;;8.07;4.53;;;;;;;;;;6306840;22;20011;-76
2023/05/27 14:59:16;;;;;;;10.00;4.25;;;;;;;;;;6304156;22;20000;-76
2023/05/27 15:01:43;;;;;;;11.68;4.60;;;;;;;;;;6306094;22;20010;-75
2023/05/27 15:04:09;;;;;;;12.82;4.15;;;;;;;;;;6307601;22;20481;-75
2023/05/27 15:06:36;;;;;;;12.07;4.20;;;;;;;;;;6307997;22;20010;-75
2023/05/27 15:09:02;;;;;;;11.77;4.70;;;;;;;;;;6307428;22;20006;-75
2023/05/27 15:11:28;;;;;;;10.50;3.90;;;;;;;;;;6307528;22;20003;-76
2023/05/27 15:13:55;;;;;;;7.90;4.50;;;;;;;;;;6307394;22;20052;-75
2023/05/27 15:16:21;;;;;;;8.98;4.95;;;;;;;;;;6308465;22;20370;-76
2023/05/27 15:18:47;;;;;;;6.22;4.25;;;;;;;;;;6308181;22;20023;-75
2023/05/27 15:21:14;;;;;;;10.82;4.47;;;;;;;;;;6306357;22;20003;-75
2023/05/27 15:23:42;;;;;;;6.88;4.30;;;;;;;;;;6304538;22;20014;-75
2023/05/27 15:26:08;;;;;;;16.45;5.05;;;;;;;;;;6304627;22;20402;-76
2023/05/27 15:41:00;;;;;;;10.77;4.90;;;;;;;;;;6135393;23;20251;-76
2023/05/27 15:43:35;;;;;;;8.75;4.22;;;;;;;;;;6212297;23;20366;-75
2023/05/27 15:52:12;;;;;;;11.15;3.83;;;;;;;;;;6183284;23;20012;-76
2023/05/27 15:54:39;;;;;;;6.63;4.30;;;;;;;;;;6275300;22;20006;-77
2023/05/27 15:57:07;;;;;;;5.13;3.90;;;;;;;;;;6275870;22;20011;-76
2023/05/27 15:59:37;;;;;;;6.68;3.92;;;;;;;;;;6274818;22;20391;-75
2023/05/27 16:02:03;;;;;;;9.07;4.20;;;;;;;;;;6276279;22;20385;-76
2023/05/27 16:04:30;;;;;;;8.88;4.43;;;;;;;;;;6276246;22;20015;-76
2023/05/27 16:06:56;;;;;;;9.43;4.25;;;;;;;;;;6275646;22;20003;-75
2023/05/27 16:09:22;;;;;;;9.15;4.70;;;;;;;;;;6275735;22;20372;-75
2023/05/27 16:11:49;;;;;;;8.27;4.45;;;;;;;;;;6274188;22;20426;-76
2023/05/27 16:14:15;;;;;;;12.35;4.45;;;;;;;;;;6274226;22;20326;-76
2023/05/27 16:16:42;;;;;;;7.85;4.60;;;;;;;;;;6275933;22;20028;-76
2023/05/27 16:19:08;;;;;;;13.07;4.70;;;;;;;;;;6276286;22;20425;-76
2023/05/27 16:21:35;;;;;;;8.82;4.70;;;;;;;;;;6275767;22;20035;-76
2023/05/27 16:24:02;;;;;;;9.13;4.47;;;;;;;;;;6276287;22;20000;-76
2023/05/27 16:26:28;;;;;;;10.43;4.63;;;;;;;;;;6275709;22;20315;-76
2023/05/27 16:28:54;;;;;;;9.95;4.32;;;;;;;;;;6274545;22;20003;-76
2023/05/27 16:31:21;;;;;;;7.82;4.60;;;;;;;;;;6275996;22;20011;-76
2023/05/27 16:33:47;;;;;;;7.35;4.50;;;;;;;;;;6276386;22;20010;-76
2023/05/27 16:36:14;;;;;;;11.00;4.55;;;;;;;;;;6274498;22;20389;-76
2023/05/27 16:38:40;;;;;;;13.27;4.60;;;;;;;;;;6275893;22;20444;-76
2023/05/27 16:41:06;;;;;;;9.35;4.78;;;;;;;;;;6274414;22;20000;-76
2023/05/27 16:43:33;;;;;;;7.15;4.38;;;;;;;;;;6275739;22;20430;-76
2023/05/27 16:45:59;;;;;;;15.65;5.10;;;;;;;;;;6275876;22;20020;-76
2023/05/27 16:48:25;;;;;;;9.80;4.18;;;;;;;;;;6296951;22;20019;-75
2023/05/27 16:50:51;;;;;;;11.90;4.55;;;;;;;;;;6306789;22;20488;-76